Time;durP1;ratioP1;P1;durP2;ratioP2;P2;SDS_P1;SDS_P2;PMS_P1;PMS_P2;Temp;Humidity;BMP_temperature;BMP_pressure;BME280_temperature;BME280_humidity;BME280_pressure;Samples;Min_cycle;Max_cycle;Signal;HPM_P1;HPM_P2
2022/04/05 00:00:22;;;;;;;24.17;20.03;;;7.20;99.90;;;;;;4926206;29;20306;-64
2022/04/05 00:02:49;;;;;;;26.17;20.70;;;7.20;99.90;;;;;;4924169;29;20203;-64
2022/04/05 00:05:17;;;;;;;27.03;21.73;;;7.20;99.90;;;;;;4942490;29;20749;-64
2022/04/05 00:07:45;;;;;;;32.10;24.87;;;7.20;99.90;;;;;;4941795;29;20238;-64
2022/04/05 00:10:17;;;;;;;29.67;24.43;;;7.20;99.90;;;;;;4922827;29;20230;-63
2022/04/05 00:12:44;;;;;;;32.50;26.27;;;7.20;99.90;;;;;;4925249;29;20702;-64
2022/04/05 00:15:12;;;;;;;37.47;27.50;;;7.30;99.90;;;;;;4938952;29;20206;-64
2022/04/05 00:17:42;;;;;;;38.30;30.07;;;7.30;99.90;;;;;;4928154;29;20227;-64
2022/04/05 00:20:09;;;;;;;36.40;28.73;;;7.30;99.90;;;;;;4940724;29;20293;-64
2022/04/05 00:43:35;;;;;;;37.97;30.23;;;7.30;99.90;;;;;;4940339;28;20304;-63
2022/04/05 00:46:02;;;;;;;38.73;30.23;;;7.30;99.90;;;;;;4938236;29;20363;-64
2022/04/05 00:48:30;;;;;;;40.13;30.63;;;7.30;99.90;;;;;;4921651;29;20199;-63
2022/04/05 00:50:57;;;;;;;36.70;29.03;;;7.30;99.90;;;;;;4941528;29;20267;-63
2022/04/05 00:53:28;;;;;;;37.40;29.20;;;7.30;99.90;;;;;;4921600;29;20203;-64
2022/04/05 00:55:57;;;;;;;34.30;26.90;;;7.30;99.90;;;;;;4923804;29;20254;-64
2022/04/05 00:58:26;;;;;;;32.17;26.47;;;7.40;99.90;;;;;;4929522;29;20203;-64
2022/04/05 01:00:54;;;;;;;33.67;26.47;;;7.30;99.90;;;;;;4936073;29;20220;-64
2022/04/05 01:03:22;;;;;;;33.17;25.97;;;7.40;99.90;;;;;;4922859;29;20199;-64
2022/04/05 01:05:52;;;;;;;28.80;23.10;;;7.40;99.90;;;;;;4937616;29;20202;-65
2022/04/05 01:08:21;;;;;;;26.30;20.73;;;7.40;99.90;;;;;;4938500;29;20235;-64
2022/04/05 01:10:54;;;;;;;25.00;21.20;;;7.30;99.90;;;;;;4922556;29;20222;-64
2022/04/05 01:13:21;;;;;;;23.27;18.10;;;7.30;99.90;;;;;;4939389;29;20198;-64
2022/04/05 01:15:50;;;;;;;20.27;16.40;;;7.30;99.90;;;;;;4938737;28;20284;-64
2022/04/05 01:18:17;;;;;;;19.63;15.97;;;7.30;99.90;;;;;;4937866;29;20207;-64
2022/04/05 01:20:44;;;;;;;18.23;14.30;;;7.20;99.90;;;;;;4920836;29;20220;-64
2022/04/05 01:23:12;;;;;;;15.73;12.40;;;7.30;99.90;;;;;;4938022;29;20203;-64
2022/04/05 01:25:42;;;;;;;16.97;12.00;;;7.30;99.90;;;;;;4924461;29;20227;-63
2022/04/05 01:28:09;;;;;;;16.27;12.33;;;7.30;99.90;;;;;;4940503;29;20222;-64
2022/04/05 01:30:36;;;;;;;15.90;11.40;;;7.30;99.90;;;;;;4936854;29;20223;-63
2022/04/05 01:33:03;;;;;;;12.30;9.63;;;7.20;99.90;;;;;;4938694;29;20200;-64
2022/04/05 01:35:30;;;;;;;15.10;10.13;;;7.30;99.90;;;;;;4939433;29;20747;-64
2022/04/05 01:38:01;;;;;;;14.03;10.27;;;7.30;99.90;;;;;;4935868;29;20226;-63
2022/04/05 01:40:28;;;;;;;14.10;9.33;;;7.30;99.90;;;;;;4938674;29;20219;-63
2022/04/05 01:42:55;;;;;;;12.43;8.70;;;7.30;99.90;;;;;;4926872;29;20199;-63
2022/04/05 01:45:28;;;;;;;13.30;9.77;;;7.30;99.90;;;;;;4938985;29;20283;-64
2022/04/05 01:48:01;;;;;;;11.60;7.87;;;7.20;99.90;;;;;;4922806;29;20601;-63
2022/04/05 01:50:31;;;;;;;9.50;7.30;;;7.20;99.90;;;;;;4938555;29;20671;-64
2022/04/05 01:53:03;;;;;;;12.10;7.57;;;7.20;99.90;;;;;;4938200;29;20203;-64
2022/04/05 01:55:31;;;;;;;10.90;7.67;;;7.20;99.90;;;;;;4922679;29;20230;-64
2022/04/05 01:58:02;;;;;;;11.47;6.90;;;7.10;99.90;;;;;;4937484;29;20204;-63
2022/04/05 02:00:32;;;;;;;8.00;6.47;;;7.10;99.90;;;;;;4934300;29;20211;-64
2022/04/05 02:02:59;;;;;;;9.10;6.63;;;7.10;99.90;;;;;;4920871;29;20223;-64
2022/04/05 02:05:28;;;;;;;10.67;7.33;;;7.10;99.90;;;;;;4939024;29;20195;-63
2022/04/05 02:07:55;;;;;;;9.30;6.93;;;7.00;99.90;;;;;;4913177;29;20207;-64
2022/04/05 02:10:23;;;;;;;9.53;6.40;;;7.00;99.90;;;;;;4906487;29;20235;-63
2022/04/05 02:12:52;;;;;;;7.83;6.13;;;7.00;99.90;;;;;;4921789;29;20254;-64
2022/04/05 02:15:45;;;;;;;8.33;5.93;;;7.00;99.90;;;;;;4924248;28;20219;-63
2022/04/05 02:18:15;;;;;;;8.07;5.70;;;7.00;99.90;;;;;;4940170;29;20565;-64
2022/04/05 02:20:44;;;;;;;7.97;6.00;;;7.00;99.90;;;;;;4921145;29;20735;-63
2022/04/05 02:23:13;;;;;;;8.70;5.90;;;7.00;99.90;;;;;;4923424;29;20683;-64
2022/04/05 02:25:57;;;;;;;5.30;4.53;;;7.00;99.90;;;;;;4928903;29;20671;-63
2022/04/05 02:28:32;;;;;;;6.17;4.63;;;6.90;99.90;;;;;;4922510;29;20194;-63
2022/04/05 02:31:04;;;;;;;6.43;5.00;;;6.90;99.90;;;;;;4934914;29;20296;-63
2022/04/05 02:33:35;;;;;;;6.80;5.97;;;6.90;99.90;;;;;;4923122;29;20199;-63
2022/04/05 02:36:07;;;;;;;7.27;5.30;;;6.90;99.90;;;;;;4906789;28;20272;-64
2022/04/05 02:38:36;;;;;;;7.40;5.20;;;6.90;99.90;;;;;;4923227;29;20314;-63
2022/04/05 02:41:06;;;;;;;6.80;5.67;;;6.90;99.90;;;;;;4910289;29;20222;-64
2022/04/05 02:43:35;;;;;;;7.47;5.63;;;6.90;99.90;;;;;;4939358;29;20258;-64
2022/04/05 02:46:05;;;;;;;11.07;7.03;;;6.90;99.90;;;;;;4922724;29;20205;-65
2022/04/05 02:48:32;;;;;;;10.60;6.97;;;6.90;99.90;;;;;;4934441;29;20604;-64
2022/04/05 02:51:03;;;;;;;11.40;6.87;;;6.90;99.90;;;;;;4932261;29;20207;-64
2022/04/05 02:53:31;;;;;;;10.57;7.27;;;7.00;99.90;;;;;;4922427;29;20755;-63
2022/04/05 02:56:01;;;;;;;10.10;7.23;;;6.90;99.90;;;;;;4941042;29;20203;-63
2022/04/05 02:58:34;;;;;;;9.80;7.67;;;6.90;99.90;;;;;;4933142;29;20298;-63
2022/04/05 03:01:08;;;;;;;13.40;7.30;;;6.90;99.90;;;;;;4925318;29;20238;-64
2022/04/05 03:03:37;;;;;;;10.37;6.60;;;6.90;99.90;;;;;;4924445;29;20780;-63
2022/04/05 03:06:04;;;;;;;9.27;6.60;;;7.00;99.90;;;;;;4932331;29;20250;-63
2022/04/05 03:08:34;;;;;;;11.03;7.30;;;7.00;99.90;;;;;;4926082;29;20199;-63
2022/04/05 03:11:04;;;;;;;19.93;13.67;;;7.00;99.90;;;;;;4937089;29;20687;-63
2022/04/05 03:13:32;;;;;;;11.27;9.37;;;7.00;99.90;;;;;;4941208;29;20230;-63
2022/04/05 03:16:03;;;;;;;13.53;10.60;;;7.00;99.90;;;;;;4924143;29;20342;-63
2022/04/05 03:18:32;;;;;;;13.23;8.73;;;7.00;99.90;;;;;;4926382;29;20598;-63
2022/04/05 03:21:00;;;;;;;12.33;10.23;;;7.00;99.90;;;;;;4927615;29;20225;-64
2022/04/05 03:23:27;;;;;;;13.73;10.63;;;7.00;99.90;;;;;;4910650;29;20261;-64
2022/04/05 03:25:54;;;;;;;9.40;6.97;;;6.90;99.90;;;;;;4938881;29;20226;-63
2022/04/05 03:28:25;;;;;;;10.53;8.07;;;6.90;99.90;;;;;;4927426;29;20298;-64
2022/04/05 03:30:54;;;;;;;9.00;7.03;;;6.90;99.90;;;;;;4922612;29;20668;-63
2022/04/05 03:33:21;;;;;;;9.00;7.10;;;6.90;99.90;;;;;;4930909;29;20278;-62
2022/04/05 03:35:49;;;;;;;12.77;8.00;;;6.90;99.90;;;;;;4922589;29;20207;-62
2022/04/05 03:38:17;;;;;;;10.03;7.00;;;6.90;99.90;;;;;;4916769;29;20204;-62
2022/04/05 03:40:46;;;;;;;11.30;8.23;;;6.90;99.90;;;;;;4922958;29;20219;-63
2022/04/05 03:43:13;;;;;;;9.77;7.93;;;6.90;99.90;;;;;;4924069;29;20200;-64
2022/04/05 03:45:47;;;;;;;10.23;8.50;;;6.90;99.90;;;;;;4922125;29;20907;-64
2022/04/05 03:48:15;;;;;;;9.67;7.40;;;6.90;99.90;;;;;;4910491;29;20208;-64
2022/04/05 03:50:43;;;;;;;9.77;7.47;;;6.90;99.90;;;;;;4923923;29;20270;-64
2022/04/05 03:53:11;;;;;;;9.57;7.50;;;6.90;99.90;;;;;;4916919;29;20211;-63
2022/04/05 03:55:39;;;;;;;10.83;8.50;;;6.90;99.90;;;;;;4922195;29;20566;-64
2022/04/05 03:58:12;;;;;;;9.60;8.10;;;6.90;99.90;;;;;;4925743;29;20198;-64
2022/04/05 04:00:46;;;;;;;14.80;9.93;;;6.90;99.90;;;;;;4922659;29;20229;-66
2022/04/05 04:03:19;;;;;;;13.47;9.60;;;6.90;99.90;;;;;;4910389;29;20195;-64
2022/04/05 04:05:49;;;;;;;12.13;8.97;;;6.90;99.90;;;;;;4924029;29;20306;-65
2022/04/05 04:08:18;;;;;;;10.80;9.57;;;6.90;99.90;;;;;;4923500;29;20192;-64
2022/04/05 04:10:48;;;;;;;15.93;10.83;;;6.90;99.90;;;;;;4923088;29;20763;-64
2022/04/05 04:13:20;;;;;;;12.07;8.43;;;7.00;99.90;;;;;;4925131;29;20202;-65
2022/04/05 04:15:50;;;;;;;10.77;8.33;;;7.00;99.90;;;;;;4936621;28;20267;-64
2022/04/05 04:18:20;;;;;;;10.13;8.17;;;7.00;99.90;;;;;;4923027;29;20621;-65
2022/04/05 04:20:50;;;;;;;10.87;8.53;;;6.90;99.90;;;;;;4922073;29;20794;-65
2022/04/05 04:23:19;;;;;;;9.90;8.10;;;7.00;99.90;;;;;;4941614;29;20196;-65
2022/04/05 04:25:51;;;;;;;12.73;9.03;;;6.90;99.90;;;;;;4907031;29;20199;-64
2022/04/05 04:28:18;;;;;;;12.17;8.57;;;6.90;99.90;;;;;;4922573;29;20215;-65
2022/04/05 04:30:45;;;;;;;13.13;8.53;;;6.90;99.90;;;;;;4914423;29;20294;-63
2022/04/05 04:33:13;;;;;;;10.73;8.43;;;6.90;99.90;;;;;;4914600;29;20570;-63
2022/04/05 04:35:41;;;;;;;10.93;8.53;;;6.90;99.90;;;;;;4916751;29;20242;-64
2022/04/05 04:38:09;;;;;;;11.97;10.53;;;6.90;99.90;;;;;;4940374;29;20534;-65
2022/04/05 04:40:39;;;;;;;12.53;9.10;;;6.90;99.90;;;;;;4921938;29;20310;-64
2022/04/05 04:43:06;;;;;;;12.50;10.07;;;6.90;99.90;;;;;;4940522;28;21012;-64
2022/04/05 04:45:34;;;;;;;14.43;12.93;;;7.00;99.90;;;;;;4923621;29;20207;-64
2022/04/05 04:48:04;;;;;;;17.83;16.03;;;6.90;99.90;;;;;;4939111;29;20195;-64
2022/04/05 04:50:33;;;;;;;14.37;12.07;;;6.90;99.90;;;;;;4930139;29;20294;-63
2022/04/05 04:53:03;;;;;;;12.73;10.77;;;6.90;99.90;;;;;;4938778;29;20203;-64
2022/04/05 04:55:32;;;;;;;11.50;8.77;;;6.90;99.90;;;;;;4938563;29;20262;-65
2022/04/05 04:58:19;;;;;;;11.57;8.57;;;7.00;99.90;;;;;;4921002;29;20290;-64
2022/04/05 05:00:49;;;;;;;12.43;8.60;;;6.90;99.90;;;;;;4937621;29;20281;-64
2022/04/05 05:03:19;;;;;;;13.53;8.83;;;6.90;99.90;;;;;;4940158;29;20195;-64
2022/04/05 05:05:48;;;;;;;11.10;9.00;;;7.00;99.90;;;;;;4938389;29;20254;-65
2022/04/05 05:08:15;;;;;;;10.53;8.73;;;6.90;99.90;;;;;;4938006;29;21219;-65
2022/04/05 05:10:41;;;;;;;10.70;8.50;;;6.90;99.90;;;;;;4923435;29;20219;-65
2022/04/05 05:13:09;;;;;;;10.37;8.93;;;6.90;99.90;;;;;;4937676;29;20808;-65
2022/04/05 05:15:36;;;;;;;11.73;8.60;;;6.90;99.90;;;;;;4935868;29;20191;-65
2022/04/05 05:18:04;;;;;;;12.13;9.83;;;6.90;99.90;;;;;;4939007;29;20235;-65
2022/04/05 05:20:31;;;;;;;15.43;11.70;;;6.90;99.90;;;;;;4923590;29;20217;-65
2022/04/05 05:22:58;;;;;;;11.77;8.90;;;7.00;99.90;;;;;;4938912;29;20246;-65
2022/04/05 05:25:34;;;;;;;11.17;9.13;;;7.00;99.90;;;;;;4920928;29;20202;-65
2022/04/05 05:28:01;;;;;;;19.47;13.17;;;7.00;99.90;;;;;;4923093;29;20293;-65
2022/04/05 05:30:28;;;;;;;20.00;15.03;;;7.10;99.90;;;;;;4937670;29;20192;-65
2022/04/05 05:32:55;;;;;;;18.40;13.67;;;7.10;99.90;;;;;;4913654;29;20235;-64
2022/04/05 05:35:22;;;;;;;12.10;9.27;;;7.10;99.90;;;;;;4940514;29;20265;-64
2022/04/05 05:37:50;;;;;;;11.17;9.27;;;7.10;99.90;;;;;;4937393;29;20255;-65
2022/04/05 05:40:18;;;;;;;14.50;10.43;;;7.10;99.90;;;;;;4907646;29;20238;-65
2022/04/05 05:42:58;;;;;;;9.60;8.33;;;7.10;99.90;;;;;;4905718;29;20287;-64
2022/04/05 05:45:27;;;;;;;12.33;9.10;;;7.10;99.90;;;;;;4934790;29;20202;-65
2022/04/05 05:47:54;;;;;;;10.83;8.70;;;7.10;99.90;;;;;;4940221;29;20265;-65
2022/04/05 05:50:22;;;;;;;15.10;11.80;;;7.10;99.90;;;;;;4921783;29;20204;-64
2022/04/05 05:52:56;;;;;;;15.53;11.93;;;7.20;99.90;;;;;;4938124;29;20715;-66
2022/04/05 05:55:23;;;;;;;13.97;10.57;;;7.20;99.90;;;;;;4938728;28;20200;-65
2022/04/05 05:57:50;;;;;;;13.37;10.43;;;7.20;99.90;;;;;;4938111;28;20207;-65
2022/04/05 06:00:22;;;;;;;14.17;11.37;;;7.20;99.90;;;;;;4921778;29;20262;-65
2022/04/05 06:02:57;;;;;;;15.43;12.00;;;7.30;99.90;;;;;;4922980;29;20228;-64
2022/04/05 06:05:29;;;;;;;15.10;10.50;;;7.30;99.90;;;;;;4908321;29;20223;-64
2022/04/05 06:07:56;;;;;;;13.10;10.83;;;7.30;99.90;;;;;;4936507;29;20219;-65
2022/04/05 06:10:24;;;;;;;13.70;10.67;;;7.40;99.90;;;;;;4937517;29;20225;-64
2022/04/05 06:12:55;;;;;;;14.37;11.20;;;7.50;99.90;;;;;;4937176;29;20203;-64
2022/04/05 06:15:25;;;;;;;16.07;11.73;;;7.50;99.90;;;;;;4924745;29;20213;-64
2022/04/05 06:17:52;;;;;;;14.23;10.80;;;7.50;99.90;;;;;;4939032;28;20259;-65
2022/04/05 06:20:21;;;;;;;11.63;10.30;;;7.60;99.90;;;;;;4920621;29;20273;-64
2022/04/05 06:22:56;;;;;;;12.10;10.20;;;7.60;99.90;;;;;;4919659;29;20698;-65
2022/04/05 06:25:35;;;;;;;13.93;11.03;;;7.60;99.90;;;;;;4919791;29;20203;-63
2022/04/05 06:28:06;;;;;;;15.07;10.73;;;7.60;99.90;;;;;;4937858;29;20260;-63
2022/04/05 06:30:36;;;;;;;12.40;10.27;;;7.70;99.90;;;;;;4934617;29;20191;-63
2022/04/05 06:33:29;;;;;;;15.40;10.00;;;7.60;99.90;;;;;;4938297;29;20204;-64
2022/04/05 06:35:58;;;;;;;11.87;9.43;;;7.70;99.90;;;;;;4918922;29;20239;-63
2022/04/05 06:38:26;;;;;;;14.53;10.83;;;7.70;99.90;;;;;;4939518;29;20863;-63
2022/04/05 06:41:00;;;;;;;10.80;9.60;;;7.80;99.90;;;;;;4933477;29;20234;-66
2022/04/05 06:43:32;;;;;;;10.77;9.60;;;7.80;99.90;;;;;;4923725;29;20195;-66
2022/04/05 06:45:59;;;;;;;12.37;9.83;;;7.90;99.90;;;;;;4937813;29;20270;-66
2022/04/05 06:48:26;;;;;;;11.27;9.30;;;7.90;99.90;;;;;;4922039;29;20841;-67
2022/04/05 06:50:54;;;;;;;10.33;8.90;;;7.90;99.90;;;;;;4939332;29;20695;-65
2022/04/05 06:53:22;;;;;;;10.60;9.50;;;8.00;99.90;;;;;;4920347;29;20226;-66
2022/04/05 06:55:49;;;;;;;11.17;8.97;;;8.00;99.90;;;;;;4922589;29;20195;-66
2022/04/05 06:58:16;;;;;;;11.93;9.27;;;8.00;99.90;;;;;;4938457;29;20258;-64
2022/04/05 07:00:43;;;;;;;12.77;8.97;;;8.00;99.90;;;;;;4918836;29;20263;-64
2022/04/05 07:03:10;;;;;;;9.53;8.53;;;8.00;99.90;;;;;;4937028;29;20255;-66
2022/04/05 07:05:37;;;;;;;11.03;8.43;;;8.10;99.90;;;;;;4929211;29;20206;-66
2022/04/05 07:08:05;;;;;;;9.23;8.33;;;8.10;99.90;;;;;;4939998;29;20203;-65
2022/04/05 07:10:32;;;;;;;9.50;8.50;;;8.20;99.90;;;;;;4933762;29;20235;-65
2022/04/05 07:12:59;;;;;;;7.60;6.80;;;8.20;99.90;;;;;;4920108;29;20658;-65
2022/04/05 07:15:26;;;;;;;10.27;8.60;;;8.10;99.90;;;;;;4930546;28;20235;-65
2022/04/05 07:17:52;;;;;;;8.93;7.20;;;8.10;99.90;;;;;;4936170;28;20334;-64
2022/04/05 07:20:30;;;;;;;9.47;7.83;;;8.20;99.90;;;;;;4919956;29;20650;-65
2022/04/05 07:22:57;;;;;;;10.23;7.77;;;8.20;99.90;;;;;;4929507;28;20226;-65
2022/04/05 07:25:24;;;;;;;9.60;8.30;;;8.30;99.90;;;;;;4932782;28;20623;-64
2022/04/05 07:27:52;;;;;;;8.93;7.97;;;8.40;99.90;;;;;;4940112;28;20195;-63
2022/04/05 07:30:20;;;;;;;10.43;7.97;;;8.30;1.00;;;;;;4934821;28;20666;-64
2022/04/05 07:32:48;;;;;;;11.47;8.30;;;8.40;17.00;;;;;;4912804;28;20223;-64
2022/04/05 07:35:15;;;;;;;8.80;7.00;;;8.40;99.90;;;;;;4940281;28;20211;-64
2022/04/05 07:37:43;;;;;;;8.60;7.70;;;8.40;1.00;;;;;;4927557;28;20250;-64
2022/04/05 07:40:11;;;;;;;11.00;8.03;;;8.30;99.90;;;;;;4939931;28;20257;-64
2022/04/05 07:42:42;;;;;;;9.67;7.97;;;8.40;99.90;;;;;;4941025;28;20247;-64
2022/04/05 07:45:11;;;;;;;10.80;7.23;;;8.50;1.00;;;;;;4939994;28;20609;-64
2022/04/05 07:47:42;;;;;;;8.57;7.57;;;8.60;11.50;;;;;;4932011;28;20203;-64
2022/04/05 07:50:09;;;;;;;6.73;6.03;;;8.60;99.90;;;;;;4917492;28;20253;-64
2022/04/05 07:52:37;;;;;;;5.47;4.97;;;8.40;1.00;;;;;;4927238;28;20217;-64
2022/04/05 07:55:05;;;;;;;6.27;5.67;;;8.60;1.00;;;;;;4928370;29;20212;-64
2022/04/05 07:57:36;;;;;;;7.13;5.20;;;8.70;1.00;;;;;;4942998;28;20291;-64
2022/04/05 08:00:05;;;;;;;6.10;5.17;;;8.70;99.90;;;;;;4937088;28;20226;-63
2022/04/05 08:02:38;;;;;;;6.60;5.13;;;8.60;1.00;;;;;;4930765;28;20314;-64
2022/04/05 08:05:13;;;;;;;6.30;5.70;;;8.70;1.00;;;;;;4939398;28;20190;-64
2022/04/05 08:07:40;;;;;;;6.57;4.83;;;8.70;99.90;;;;;;4944129;28;20198;-64
2022/04/05 08:10:07;;;;;;;6.60;4.60;;;8.70;99.90;;;;;;4928869;29;20224;-64
2022/04/05 08:12:38;;;;;;;5.57;4.53;;;8.80;99.90;;;;;;4925227;28;20259;-64
2022/04/05 08:15:06;;;;;;;6.83;4.73;;;8.90;1.00;;;;;;4941125;28;20277;-64
2022/04/05 08:17:33;;;;;;;5.50;4.60;;;8.90;99.90;;;;;;4943313;28;20699;-64
2022/04/05 08:20:00;;;;;;;4.77;4.27;;;8.90;1.00;;;;;;4944062;28;20291;-64
2022/04/05 08:22:27;;;;;;;5.23;4.73;;;9.00;64.50;;;;;;4944309;28;20219;-65
2022/04/05 08:24:54;;;;;;;6.93;4.40;;;9.00;99.90;;;;;;4938615;28;20191;-64
2022/04/05 08:27:20;;;;;;;5.73;4.50;;;8.80;99.90;;;;;;4930887;29;20199;-64
2022/04/05 08:29:47;;;;;;;5.70;4.63;;;8.90;99.90;;;;;;4926103;29;20188;-65
2022/04/05 08:32:17;;;;;;;5.87;4.73;;;8.80;1.00;;;;;;4941763;28;20686;-64
2022/04/05 08:34:45;;;;;;;6.33;5.73;;;8.90;1.00;;;;;;4932566;28;20221;-64
2022/04/05 08:37:14;;;;;;;6.90;6.17;;;8.90;99.90;;;;;;4925642;29;20203;-65
2022/04/05 08:39:42;;;;;;;6.80;5.83;;;9.00;1.00;;;;;;4926072;28;20231;-64
2022/04/05 08:42:10;;;;;;;7.13;5.50;;;9.10;1.00;;;;;;4941233;28;20286;-64
2022/04/05 08:44:38;;;;;;;7.50;6.80;;;9.20;99.90;;;;;;4914973;28;20199;-64
2022/04/05 08:47:05;;;;;;;7.13;6.43;;;9.20;1.00;;;;;;4926732;29;20195;-64
2022/04/05 08:49:32;;;;;;;9.13;7.17;;;9.30;1.00;;;;;;4925448;29;20215;-65
2022/04/05 08:52:00;;;;;;;8.27;7.43;;;9.30;1.00;;;;;;4945410;28;20202;-64
2022/04/05 08:54:26;;;;;;;9.20;7.80;;;9.20;99.90;;;;;;4931666;29;20207;-64
2022/04/05 08:56:54;;;;;;;10.67;8.43;;;9.30;99.90;;;;;;4928020;28;20916;-64
2022/04/05 08:59:21;;;;;;;10.77;9.50;;;9.30;1.00;;;;;;4929470;29;20196;-64
2022/04/05 09:01:50;;;;;;;10.70;9.60;;;9.30;1.00;;;;;;4927442;28;20247;-63
2022/04/05 09:04:17;;;;;;;10.63;9.50;;;9.40;1.00;;;;;;4939913;29;20215;-63
2022/04/05 09:06:44;;;;;;;13.73;11.17;;;9.50;99.90;;;;;;4940590;28;20214;-64
2022/04/05 09:09:17;;;;;;;13.73;11.97;;;9.60;1.00;;;;;;4941213;28;20279;-64
2022/04/05 09:11:49;;;;;;;15.03;12.23;;;9.80;1.00;;;;;;4925970;29;20227;-64
2022/04/05 09:14:25;;;;;;;14.40;11.60;;;9.90;1.00;;;;;;4925616;28;20211;-64
2022/04/05 09:17:09;;;;;;;12.30;10.83;;;9.90;99.90;;;;;;4916918;28;20250;-65
2022/04/05 09:19:37;;;;;;;18.47;14.90;;;10.00;1.00;;;;;;4942886;28;20232;-64
2022/04/05 09:22:05;;;;;;;13.17;11.77;;;10.10;99.90;;;;;;4926214;28;20225;-66
2022/04/05 09:24:34;;;;;;;17.27;15.47;;;10.20;1.00;;;;;;4924603;29;20199;-65
2022/04/05 09:27:01;;;;;;;13.93;12.63;;;10.20;54.20;;;;;;4943331;28;20278;-65
2022/04/05 09:29:47;;;;;;;11.27;10.17;;;10.30;99.90;;;;;;4924142;28;20227;-66
2022/04/05 09:32:37;;;;;;;12.03;10.83;;;10.40;1.00;;;;;;4943762;28;20953;-65
2022/04/05 09:35:06;;;;;;;12.20;11.10;;;10.40;99.90;;;;;;4944213;28;20196;-65
2022/04/05 09:37:38;;;;;;;12.43;11.23;;;10.40;1.00;;;;;;4924557;28;20285;-65
2022/04/05 09:40:20;;;;;;;12.50;11.30;;;10.40;1.00;;;;;;4925004;28;20207;-65
2022/04/05 09:43:07;;;;;;;12.63;11.37;;;10.30;99.90;;;;;;4941374;28;20239;-66
2022/04/05 09:45:58;;;;;;;12.67;11.37;;;10.20;1.00;;;;;;4928183;28;20203;-65
2022/04/05 09:48:27;;;;;;;12.50;11.20;;;10.20;1.00;;;;;;4942629;28;20282;-65
2022/04/05 09:51:06;;;;;;;14.07;12.67;;;10.40;1.00;;;;;;4942463;28;20195;-65
2022/04/05 09:53:39;;;;;;;13.93;12.27;;;10.60;1.00;;;;;;4941281;28;20217;-65
2022/04/05 09:56:10;;;;;;;14.10;12.43;;;10.70;99.90;;;;;;4923493;29;20214;-65
2022/04/05 09:58:56;;;;;;;13.43;12.03;;;10.80;99.90;;;;;;4924660;29;20701;-64
2022/04/05 10:01:28;;;;;;;14.13;12.73;;;11.00;1.00;;;;;;4942850;28;20231;-65
2022/04/05 10:04:22;;;;;;;13.97;11.60;;;11.10;1.00;;;;;;4941768;28;20222;-65
2022/04/05 10:06:49;;;;;;;14.80;13.10;;;11.00;95.90;;;;;;4923293;29;20581;-65
2022/04/05 10:09:19;;;;;;;13.57;12.27;;;11.10;99.90;;;;;;4924628;29;20219;-65
2022/04/05 10:11:46;;;;;;;12.57;11.37;;;11.20;99.90;;;;;;4944229;28;20742;-65
2022/04/05 10:14:20;;;;;;;11.77;10.67;;;11.10;99.90;;;;;;4909668;28;20211;-64
2022/04/05 10:16:49;;;;;;;12.07;10.80;;;11.00;99.90;;;;;;4941443;28;20758;-64
2022/04/05 10:19:17;;;;;;;13.00;11.70;;;11.10;1.00;;;;;;4939768;28;20217;-66
2022/04/05 10:21:47;;;;;;;12.27;11.07;;;11.40;1.00;;;;;;4941503;28;20675;-66
2022/04/05 10:24:14;;;;;;;11.40;10.20;;;11.70;99.90;;;;;;4939940;28;20275;-65
2022/04/05 10:26:46;;;;;;;11.93;9.63;;;12.00;1.00;;;;;;4941096;28;20706;-65
2022/04/05 10:29:15;;;;;;;10.50;9.33;;;12.20;99.90;;;;;;4938120;28;20709;-65
2022/04/05 10:31:44;;;;;;;8.87;8.07;;;12.00;1.00;;;;;;4941078;28;20191;-65
2022/04/05 10:34:28;;;;;;;9.47;8.47;;;11.70;1.00;;;;;;4943205;28;20199;-65
2022/04/05 10:37:06;;;;;;;10.03;8.93;;;11.30;99.90;;;;;;4939177;28;20282;-66
2022/04/05 10:39:34;;;;;;;12.10;10.10;;;11.10;6.20;;;;;;4934558;28;20286;-64
2022/04/05 10:42:13;;;;;;;11.53;10.50;;;11.20;1.00;;;;;;4940867;28;20717;-65
2022/04/05 10:44:47;;;;;;;12.53;11.23;;;11.40;1.00;;;;;;4940607;29;20198;-63
2022/04/05 10:47:14;;;;;;;11.40;10.30;;;11.60;1.00;;;;;;4923456;29;20198;-66
2022/04/05 10:50:17;;;;;;;12.93;10.40;;;12.20;99.90;;;;;;4922542;29;20229;-63
2022/04/05 10:52:47;;;;;;;10.17;8.70;;;13.50;99.90;;;;;;4929456;29;20217;-63
2022/04/05 10:55:20;;;;;;;7.40;6.73;;;14.20;1.00;;;;;;4935118;29;20608;-64
2022/04/05 10:57:48;;;;;;;7.03;6.33;;;14.40;99.90;;;;;;4931900;29;20204;-64
2022/04/05 11:00:26;;;;;;;5.57;5.07;;;15.10;99.90;;;;;;4927949;29;20254;-65
2022/04/05 11:02:53;;;;;;;5.80;5.13;;;15.50;1.00;;;;;;4921866;28;20222;-65
2022/04/05 11:05:24;;;;;;;5.82;5.20;;;15.40;1.00;;;;;;4923102;29;20195;-63
2022/04/05 11:07:51;;;;;;;5.55;5.05;;;15.60;86.00;;;;;;4943990;29;20695;-64
2022/04/05 11:10:45;;;;;;;6.75;5.25;;;15.60;1.00;;;;;;4937342;28;20910;-64
2022/04/05 11:13:18;;;;;;;5.97;5.38;;;16.10;1.00;;;;;;4939341;29;20315;-64
2022/04/05 11:15:45;;;;;;;4.75;4.35;;;16.50;1.00;;;;;;4939800;29;20583;-65
2022/04/05 11:18:14;;;;;;;4.80;4.30;;;16.00;1.00;;;;;;4939286;29;20191;-64
2022/04/05 11:20:42;;;;;;;5.35;4.82;;;15.80;1.00;;;;;;4923100;29;20242;-64
2022/04/05 11:23:16;;;;;;;5.28;4.88;;;14.90;1.00;;;;;;4920861;29;20227;-63
2022/04/05 11:25:46;;;;;;;5.95;5.07;;;15.40;56.30;;;;;;4925879;28;20298;-65
2022/04/05 11:28:21;;;;;;;4.97;4.57;;;16.00;1.00;;;;;;4939522;28;20206;-65
2022/04/05 11:30:58;;;;;;;5.03;4.07;;;16.30;1.00;;;;;;4927009;29;20282;-64
2022/04/05 11:33:31;;;;;;;4.05;3.60;;;16.90;99.90;;;;;;4924073;29;20210;-63
2022/04/05 11:36:13;;;;;;;3.45;3.15;;;16.40;99.90;;;;;;4940119;28;20243;-65
2022/04/05 11:38:53;;;;;;;4.82;3.20;;;16.40;1.00;;;;;;4939637;28;20204;-65
2022/04/05 11:41:21;;;;;;;3.17;2.88;;;16.30;99.90;;;;;;4924428;28;20211;-65
2022/04/05 11:44:00;;;;;;;4.10;2.88;;;16.20;1.00;;;;;;4920319;28;20207;-65
2022/04/05 11:46:35;;;;;;;3.42;3.03;;;16.70;1.00;;;;;;4906308;28;20209;-65
2022/04/05 11:49:05;;;;;;;3.25;2.97;;;16.70;99.90;;;;;;4937958;28;20282;-65
2022/04/05 11:51:36;;;;;;;3.70;3.40;;;16.30;99.90;;;;;;4936522;28;20669;-64
2022/04/05 11:57:04;;;;;;;4.55;4.13;;;15.10;1.00;;;;;;5103479;23;20598;-79
2022/04/05 11:59:31;;;;;;;4.97;4.57;;;14.80;97.60;;;;;;4946429;28;20233;-79
2022/04/05 12:02:04;;;;;;;5.00;4.60;;;14.70;1.00;;;;;;4957024;28;20317;-79
2022/04/05 12:04:32;;;;;;;5.63;5.13;;;14.50;92.50;;;;;;4944176;28;20199;-79
2022/04/05 12:07:03;;;;;;;5.37;4.93;;;14.00;99.90;;;;;;4933742;28;20430;-78
2022/04/05 12:09:32;;;;;;;5.90;5.40;;;13.40;99.90;;;;;;4943586;28;20206;-77
2022/04/05 12:12:04;;;;;;;8.13;7.20;;;13.10;1.00;;;;;;4947977;28;20317;-79
2022/04/05 12:14:35;;;;;;;8.23;7.47;;;12.70;99.90;;;;;;4959979;28;20202;-78
2022/04/05 12:17:03;;;;;;;9.53;8.23;;;12.60;1.00;;;;;;4944349;28;20214;-77
2022/04/05 12:19:36;;;;;;;8.73;7.80;;;12.50;1.00;;;;;;4941634;28;20217;-77
2022/04/05 12:22:09;;;;;;;9.67;8.40;;;12.30;1.00;;;;;;4942801;28;20310;-78
2022/04/05 12:24:43;;;;;;;8.97;8.10;;;12.00;1.00;;;;;;4960580;28;20187;-78
2022/04/05 12:27:10;;;;;;;9.93;8.83;;;11.90;1.00;;;;;;4934478;28;20199;-80
2022/04/05 12:29:39;;;;;;;9.93;8.83;;;12.00;1.00;;;;;;4948284;28;20227;-78
2022/04/05 12:32:11;;;;;;;9.83;8.33;;;12.50;1.00;;;;;;4918483;29;20512;-81
2022/04/05 12:34:40;;;;;;;8.10;7.30;;;12.70;1.00;;;;;;4932303;28;20203;-79
2022/04/05 12:37:12;;;;;;;7.87;6.90;;;12.80;1.00;;;;;;4929692;28;20790;-78
2022/04/05 12:39:48;;;;;;;7.43;5.20;;;13.30;99.90;;;;;;4930295;28;20199;-81
2022/04/05 12:42:15;;;;;;;6.40;5.80;;;13.80;1.00;;;;;;4944657;28;20371;-80
2022/04/05 12:44:44;;;;;;;5.37;4.87;;;14.30;99.90;;;;;;4927330;28;20266;-82
2022/04/05 12:47:21;;;;;;;6.07;5.47;;;14.60;99.90;;;;;;4951990;28;20381;-80
2022/04/05 12:49:51;;;;;;;5.27;4.77;;;14.50;99.90;;;;;;4929114;28;21473;-79
2022/04/05 12:52:23;;;;;;;4.73;4.33;;;14.60;99.90;;;;;;4929109;28;20219;-79
2022/04/05 12:55:05;;;;;;;4.67;4.27;;;14.30;34.60;;;;;;4949307;28;20907;-78
2022/04/05 12:57:35;;;;;;;4.73;4.20;;;14.60;59.00;;;;;;4895341;29;20210;-82
2022/04/05 13:00:11;;;;;;;4.83;4.10;;;14.80;1.00;;;;;;4909800;29;20212;-79
2022/04/05 13:02:44;;;;;;;4.67;4.27;;;14.80;1.00;;;;;;4909622;29;20397;-80
2022/04/05 13:08:11;;;;;;;5.47;4.20;;;14.80;1.00;;;;;;4908725;29;20197;-79
2022/04/05 13:10:56;;;;;;;5.60;4.23;;;14.90;1.00;;;;;;4906526;29;20727;-78
2022/04/05 13:13:41;;;;;;;4.50;4.10;;;15.00;1.00;;;;;;4892316;29;20849;-81
2022/04/05 13:16:10;;;;;;;4.40;4.00;;;15.10;1.00;;;;;;4908000;29;20196;-80
2022/04/05 13:18:51;;;;;;;4.07;3.75;;;14.90;1.00;;;;;;4922637;29;20245;-78
2022/04/05 13:21:37;;;;;;;5.05;4.55;;;14.80;1.00;;;;;;4894234;29;20200;-77
2022/04/05 13:32:00;;;;;;;4.83;4.37;;;14.20;1.00;;;;;;4944786;28;20303;-66
2022/04/05 13:34:36;;;;;;;6.23;5.63;;;13.70;1.00;;;;;;4948503;28;20195;-66
2022/04/05 13:37:04;;;;;;;6.80;5.60;;;13.30;99.90;;;;;;4928360;28;20880;-66
2022/04/05 13:39:34;;;;;;;6.93;6.23;;;13.10;1.00;;;;;;4931334;29;20863;-66